createdAt,value
2022-11-09T00:02:14.432Z,100804.91
2022-11-09T00:05:17.087Z,100808.44
2022-11-09T00:08:19.899Z,100810.25
2022-11-09T00:11:23.048Z,100810.38
2022-11-09T00:14:25.959Z,100805.94
2022-11-09T00:17:28.513Z,100808.53
2022-11-09T00:20:31.513Z,100815.59
2022-11-09T00:23:33.998Z,100802.31
2022-11-09T00:26:36.845Z,100803.28
2022-11-09T00:29:39.185Z,100796.19
2022-11-09T00:32:42.216Z,100798.91
2022-11-09T00:35:44.781Z,100796.22
2022-11-09T00:38:54.665Z,100797.03
2022-11-09T00:41:57.121Z,100798.75
2022-11-09T00:45:00.001Z,100801.44
2022-11-09T00:48:02.856Z,100792.69
2022-11-09T00:51:06.044Z,100792.69
2022-11-09T00:54:10.228Z,100798.03
2022-11-09T00:57:13.961Z,100791.81
2022-11-09T01:00:21.565Z,100789.13
2022-11-09T01:03:25.650Z,100792.75
2022-11-09T01:06:28.480Z,100791.91
2022-11-09T01:09:31.464Z,100792.84
2022-11-09T01:12:34.335Z,100797.16
2022-11-09T01:15:48.551Z,100792.78
2022-11-09T01:18:55.624Z,100796.31
2022-11-09T01:22:00.264Z,100785.66
2022-11-09T01:25:04.868Z,100798.13
2022-11-09T01:28:08.239Z,100796.41
2022-11-09T01:31:16.181Z,100790.16
2022-11-09T01:34:18.954Z,100785.78
2022-11-09T01:37:21.555Z,100776.81
2022-11-09T01:40:24.273Z,100778.50
2022-11-09T01:43:26.874Z,100782.94
2022-11-09T01:46:55.203Z,100775.81
2022-11-09T01:50:00.400Z,100770.50
2022-11-09T01:53:06.065Z,100773.94
2022-11-09T01:56:11.480Z,100769.44
2022-11-09T01:59:22.680Z,100759.78
2022-11-09T02:02:25.986Z,100750.03
2022-11-09T02:05:31.678Z,100751.75
2022-11-09T02:08:34.341Z,100747.28
2022-11-09T02:11:38.238Z,100744.63
2022-11-09T02:14:41.990Z,100753.56
2022-11-09T02:17:45.056Z,100751.78
2022-11-09T02:20:50.231Z,100751.72
2022-11-09T02:23:53.437Z,100753.53
2022-11-09T02:26:56.164Z,100748.16
2022-11-09T02:30:01.073Z,100748.25
2022-11-09T02:33:05.700Z,100750.00
2022-11-09T02:36:08.953Z,100745.59
2022-11-09T02:39:15.074Z,100752.59
2022-11-09T02:42:21.403Z,100750.03
2022-11-09T02:45:26.281Z,100749.06
2022-11-09T02:48:30.632Z,100750.75
2022-11-09T02:51:33.849Z,100754.28
2022-11-09T02:54:36.831Z,100763.19
2022-11-09T02:57:40.718Z,100761.38
2022-11-09T03:00:45.164Z,100752.41
2022-11-09T03:03:48.863Z,100770.88
2022-11-09T03:06:51.673Z,100763.81
2022-11-09T03:09:55.439Z,100771.81
2022-11-09T03:13:00.202Z,100776.31
2022-11-09T03:16:06.882Z,100775.44
2022-11-09T03:19:13.770Z,100779.88
2022-11-09T03:22:16.548Z,100782.53
2022-11-09T03:25:21.674Z,100772.84
2022-11-09T03:28:25.123Z,100769.22
2022-11-09T03:31:29.377Z,100778.94
2022-11-09T03:34:33.412Z,100773.72
2022-11-09T03:37:36.908Z,100772.72
2022-11-09T03:40:40.193Z,100772.78
2022-11-09T03:43:43.082Z,100769.16
2022-11-09T03:46:45.479Z,100763.88
2022-11-09T03:49:48.269Z,100765.47
2022-11-09T03:52:50.798Z,100753.19
2022-11-09T03:55:53.509Z,100759.38
2022-11-09T03:58:56.015Z,100762.00
2022-11-09T04:01:59.095Z,100746.88
2022-11-09T04:05:01.639Z,100754.69
2022-11-09T04:08:04.859Z,100760.88
2022-11-09T04:11:07.429Z,100751.22
2022-11-09T04:14:10.318Z,100744.13
2022-11-09T04:17:12.874Z,100745.00
2022-11-09T04:20:15.712Z,100729.88
2022-11-09T04:23:18.579Z,100743.09
2022-11-09T04:26:21.733Z,100737.84
2022-11-09T04:29:24.308Z,100743.13
2022-11-09T04:32:27.075Z,100742.09
2022-11-09T04:35:30.769Z,100743.91
2022-11-09T04:38:34.019Z,100736.81
2022-11-09T04:41:36.635Z,100735.16
2022-11-09T04:44:39.504Z,100742.16
2022-11-09T04:47:41.974Z,100737.75
2022-11-09T04:50:44.763Z,100733.41
2022-11-09T04:53:47.299Z,100735.06
2022-11-09T04:56:50.051Z,100744.63
2022-11-09T04:59:52.661Z,100747.44
2022-11-09T05:02:55.760Z,100740.34
2022-11-09T05:05:58.396Z,100749.03
2022-11-09T05:09:03.929Z,100744.53
2022-11-09T05:12:06.771Z,100742.81
2022-11-09T05:15:10.107Z,100731.19
2022-11-09T05:18:12.605Z,100740.13
2022-11-09T05:21:15.673Z,100746.34
2022-11-09T05:24:18.207Z,100736.47
2022-11-09T05:27:20.898Z,100745.34
2022-11-09T05:30:23.766Z,100741.94
2022-11-09T05:33:26.737Z,100753.31
2022-11-09T05:36:30.904Z,100758.56
2022-11-09T05:39:33.694Z,100744.34
2022-11-09T05:42:40.286Z,100749.75
2022-11-09T05:45:44.445Z,100745.22
2022-11-09T05:48:47.586Z,100747.84
2022-11-09T05:51:50.498Z,100741.66
2022-11-09T05:54:52.908Z,100738.88
2022-11-09T05:57:56.203Z,100745.06
2022-11-09T06:01:00.048Z,100748.50
2022-11-09T06:04:02.927Z,100749.50
2022-11-09T06:07:05.574Z,100755.50
2022-11-09T06:10:09.484Z,100758.97
2022-11-09T06:13:12.534Z,100747.34
2022-11-09T06:16:15.143Z,100762.53
2022-11-09T06:19:17.782Z,100766.13
2022-11-09T06:22:20.677Z,100764.28
2022-11-09T06:25:23.725Z,100759.09
2022-11-09T06:28:27.240Z,100752.97
2022-11-09T06:31:29.876Z,100751.13
2022-11-09T06:34:33.274Z,100758.16
2022-11-09T06:37:36.064Z,100755.50
2022-11-09T06:40:39.547Z,100767.94
2022-11-09T06:43:42.524Z,100752.19
2022-11-09T06:46:45.387Z,100748.75
2022-11-09T06:49:47.967Z,100743.41
2022-11-09T06:52:50.711Z,100754.25
2022-11-09T06:55:53.389Z,100745.56
2022-11-09T06:58:56.288Z,100752.88
2022-11-09T07:02:01.420Z,100750.19
2022-11-09T07:05:05.049Z,100758.34
2022-11-09T07:08:07.937Z,100748.84
2022-11-09T07:11:13.704Z,100750.69
2022-11-09T07:14:16.117Z,100753.38
2022-11-09T07:17:18.882Z,100747.31
2022-11-09T07:20:21.976Z,100746.53
2022-11-09T07:23:25.248Z,100754.63
2022-11-09T07:26:28.033Z,100749.38
2022-11-09T07:29:30.894Z,100747.69
2022-11-09T07:36:01.724Z,100732.78
2022-11-09T07:39:04.554Z,100751.41
2022-11-09T07:42:07.299Z,100746.22
2022-11-09T07:45:12.202Z,100749.81
2022-11-09T07:48:15.716Z,100739.31
2022-11-09T07:51:18.270Z,100747.22
2022-11-09T07:54:21.713Z,100738.53
2022-11-09T07:57:24.561Z,100727.06
2022-11-09T08:00:28.901Z,100756.25
2022-11-09T08:03:31.908Z,100751.03
2022-11-09T08:06:35.165Z,100746.63
2022-11-09T08:09:37.701Z,100745.88
2022-11-09T08:12:40.616Z,100738.03
2022-11-09T08:15:43.072Z,100728.38
2022-11-09T08:18:45.868Z,100737.38
2022-11-09T08:21:48.344Z,100741.81
2022-11-09T08:24:51.184Z,100730.38
2022-11-09T08:27:54.076Z,100726.94
2022-11-09T08:31:03.455Z,100722.53
2022-11-09T08:34:07.021Z,100727.00
2022-11-09T08:37:09.998Z,100708.44
2022-11-09T08:40:13.516Z,100710.25
2022-11-09T08:43:16.489Z,100707.56
2022-11-09T08:46:19.208Z,100705.81
2022-11-09T08:49:22.104Z,100714.69
2022-11-09T08:52:24.749Z,100705.88
2022-11-09T08:55:27.644Z,100714.75
2022-11-09T08:58:30.187Z,100712.06
2022-11-09T09:01:33.106Z,100713.88
2022-11-09T09:04:35.913Z,100720.97
2022-11-09T09:07:38.661Z,100713.03
2022-11-09T09:10:42.459Z,100719.25
2022-11-09T09:13:45.423Z,100714.84
2022-11-09T09:16:48.044Z,100725.44
2022-11-09T09:19:50.893Z,100726.38
2022-11-09T09:22:53.239Z,100727.25
2022-11-09T09:25:58.834Z,100719.25
2022-11-09T09:29:01.579Z,100717.47
2022-11-09T09:32:05.151Z,100721.88
2022-11-09T09:35:08.281Z,100721.84
2022-11-09T09:38:11.009Z,100720.97
2022-11-09T09:41:37.503Z,100720.91
2022-11-09T09:45:02.084Z,100711.13
2022-11-09T09:48:15.616Z,100716.41
2022-11-09T09:51:28.952Z,100719.97
2022-11-09T09:54:35.907Z,100722.59
2022-11-09T09:57:42.077Z,100731.53
2022-11-09T10:00:45.176Z,100730.59
2022-11-09T10:03:48.820Z,100726.19
2022-11-09T10:07:14.287Z,100730.59
2022-11-09T10:10:21.615Z,100729.69
2022-11-09T10:13:46.182Z,100718.09
2022-11-09T10:17:31.029Z,100721.59
2022-11-09T10:21:03.008Z,100717.03
2022-11-09T10:24:48.643Z,100700.06
2022-11-09T10:28:13.448Z,100688.53
2022-11-09T10:31:21.372Z,100702.75
2022-11-09T10:34:39.978Z,100711.53
2022-11-09T10:37:46.671Z,100699.91
2022-11-09T10:40:56.407Z,100695.31
2022-11-09T10:44:19.240Z,100699.78
2022-11-09T10:47:51.428Z,100686.28
2022-11-09T10:51:36.216Z,100696.06
2022-11-09T10:55:17.531Z,100702.31
2022-11-09T10:58:45.880Z,100704.94
2022-11-09T11:02:25.735Z,100688.78
2022-11-09T11:05:58.482Z,100691.41
2022-11-09T11:09:21.355Z,100700.25
2022-11-09T11:12:44.433Z,100692.84
2022-11-09T11:16:36.815Z,100694.75
2022-11-09T11:20:29.183Z,100689.44
2022-11-09T11:24:16.461Z,100693.78
2022-11-09T11:27:53.131Z,100670.50
2022-11-09T11:31:17.392Z,100672.25
2022-11-09T11:34:59.165Z,100691.75
2022-11-09T11:38:38.627Z,100683.53
2022-11-09T11:42:03.799Z,100696.75
2022-11-09T11:45:41.628Z,100700.34
2022-11-09T11:49:09.535Z,100693.34
2022-11-09T11:53:04.940Z,100691.53
2022-11-09T11:56:43.504Z,100687.94
2022-11-09T12:00:10.284Z,100693.25
2022-11-09T12:03:46.943Z,100681.84
2022-11-09T12:07:39.784Z,100686.97
2022-11-09T12:11:09.148Z,100678.00
2022-11-09T12:14:47.415Z,100667.47
2022-11-09T12:18:16.219Z,100673.41
2022-11-09T12:21:55.426Z,100668.19
2022-11-09T12:25:51.677Z,100675.44
2022-11-09T12:29:20.815Z,100667.38
2022-11-09T12:32:50.999Z,100670.09
2022-11-09T12:36:22.933Z,100673.66
2022-11-09T12:39:47.617Z,100673.69
2022-11-09T12:43:18.203Z,100688.69
2022-11-09T12:46:45.905Z,100692.22
2022-11-09T12:50:15.197Z,100691.25
2022-11-09T12:53:38.482Z,100690.66
2022-11-09T12:57:23.481Z,100684.38
2022-11-09T13:00:46.274Z,100694.22
2022-11-09T13:04:07.514Z,100692.53
2022-11-09T13:07:29.275Z,100696.94
2022-11-09T13:11:17.817Z,100689.81
2022-11-09T13:14:39.438Z,100683.63
2022-11-09T13:18:22.650Z,100691.50
2022-11-09T13:21:44.014Z,100683.63
2022-11-09T13:25:44.572Z,100666.88
2022-11-09T13:29:29.644Z,100679.41
2022-11-09T13:33:16.987Z,100681.16
2022-11-09T13:36:38.141Z,100676.66
2022-11-09T13:39:59.872Z,100686.56
2022-11-09T13:43:27.349Z,100683.88
2022-11-09T13:46:49.784Z,100684.81
2022-11-09T13:50:25.213Z,100689.28
2022-11-09T13:53:55.579Z,100691.88
2022-11-09T13:57:17.501Z,100677.63
2022-11-09T14:00:38.520Z,100683.88
2022-11-09T14:04:01.644Z,100680.34
2022-11-09T14:07:28.282Z,100690.13
2022-11-09T14:11:20.363Z,100706.16
2022-11-09T14:15:03.048Z,100709.78
2022-11-09T14:18:38.864Z,100711.72
2022-11-09T14:22:00.177Z,100706.50
2022-11-09T14:25:23.938Z,100709.13
2022-11-09T14:28:44.987Z,100710.91
2022-11-09T14:32:18.546Z,100710.03
2022-11-09T14:35:40.182Z,100712.81
2022-11-09T14:39:05.250Z,100710.34
2022-11-09T14:42:26.489Z,100708.53
2022-11-09T14:45:53.792Z,100717.47
2022-11-09T14:49:15.286Z,100707.69
2022-11-09T14:52:36.925Z,100705.19
2022-11-09T14:56:00.690Z,100705.22
2022-11-09T14:59:32.333Z,100705.22
2022-11-09T15:02:54.158Z,100707.06
2022-11-09T15:06:17.843Z,100711.53
2022-11-09T15:09:48.414Z,100695.63
2022-11-09T15:13:10.132Z,100692.97
2022-11-09T15:16:31.999Z,100702.75
2022-11-09T15:20:05.123Z,100690.41
2022-11-09T15:23:40.491Z,100696.63
2022-11-09T15:27:02.257Z,100693.19
2022-11-09T15:30:32.457Z,100696.72
2022-11-09T15:33:56.356Z,100702.09
2022-11-09T15:37:41.285Z,100704.81
2022-11-09T15:41:06.883Z,100702.16
2022-11-09T15:44:28.405Z,100697.75
2022-11-09T15:47:56.807Z,100691.53
2022-11-09T15:51:19.254Z,100694.22
2022-11-09T15:54:46.444Z,100699.59
2022-11-09T15:58:11.923Z,100696.97
2022-11-09T16:01:33.838Z,100691.66
2022-11-09T16:04:55.168Z,100691.63
2022-11-09T16:08:16.758Z,100701.34
2022-11-09T16:11:38.071Z,100707.63
2022-11-09T16:14:59.363Z,100701.44
2022-11-09T16:18:25.726Z,100702.31
2022-11-09T16:21:48.534Z,100705.88
2022-11-09T16:25:10.200Z,100697.00
2022-11-09T16:28:32.222Z,100704.09
2022-11-09T16:31:53.759Z,100710.31
2022-11-09T16:35:26.606Z,100705.91
2022-11-09T16:38:51.872Z,100699.75
2022-11-09T16:42:15.121Z,100716.59
2022-11-09T16:45:36.286Z,100703.34
2022-11-09T16:49:01.563Z,100711.31
2022-11-09T16:52:23.494Z,100709.53
2022-11-09T16:55:45.391Z,100708.63
2022-11-09T16:59:06.821Z,100705.13
2022-11-09T17:02:28.555Z,100702.41
2022-11-09T17:05:50.434Z,100705.97
2022-11-09T17:09:12.601Z,100698.88
2022-11-09T17:12:34.114Z,100698.00
2022-11-09T17:15:55.587Z,100701.53
2022-11-09T17:19:17.797Z,100714.84
2022-11-09T17:22:45.879Z,100698.00
2022-11-09T17:26:08.964Z,100706.84
2022-11-09T17:29:31.071Z,100707.75
2022-11-09T17:32:52.796Z,100707.75
2022-11-09T17:36:29.716Z,100692.69
2022-11-09T17:40:00.005Z,100705.09
2022-11-09T17:43:21.454Z,100706.84
2022-11-09T17:46:42.891Z,100716.59
2022-11-09T17:50:05.494Z,100728.13
2022-11-09T17:53:27.573Z,100713.06
2022-11-09T17:56:49.991Z,100709.53
2022-11-09T18:00:11.914Z,100707.72
2022-11-09T18:03:36.799Z,100684.69
2022-11-09T18:06:58.628Z,100697.13
2022-11-09T18:10:20.958Z,100698.00
2022-11-09T18:13:44.697Z,100704.22
2022-11-09T18:17:07.203Z,100715.72
2022-11-09T18:20:28.983Z,100715.72
2022-11-09T18:23:51.244Z,100710.41
2022-11-09T18:27:13.488Z,100713.94
2022-11-09T18:30:42.128Z,100715.72
2022-11-09T18:34:03.905Z,100711.28
2022-11-09T18:37:28.092Z,100714.81
2022-11-09T18:41:02.103Z,100732.53
2022-11-09T18:44:23.894Z,100721.91
2022-11-09T18:47:48.827Z,100722.78
2022-11-09T18:51:11.743Z,100715.69
2022-11-09T18:54:33.951Z,100723.69
2022-11-09T18:57:56.161Z,100733.41
2022-11-09T19:01:18.229Z,100726.34
2022-11-09T19:04:45.375Z,100722.78
2022-11-09T19:08:07.761Z,100728.09
2022-11-09T19:11:30.728Z,100729.84
2022-11-09T19:14:55.128Z,100733.41
2022-11-09T19:18:19.312Z,100741.38
2022-11-09T19:21:51.489Z,100745.78
2022-11-09T19:25:14.945Z,100753.72
2022-11-09T19:28:37.439Z,100738.69
2022-11-09T19:31:59.607Z,100745.75
2022-11-09T19:35:26.389Z,100743.09
2022-11-09T19:38:51.062Z,100751.06
2022-11-09T19:42:13.241Z,100746.63
2022-11-09T19:45:35.070Z,100746.63
2022-11-09T19:48:57.893Z,100747.50
2022-11-09T19:52:20.509Z,100740.44
2022-11-09T19:55:42.478Z,100731.56
2022-11-09T19:59:06.388Z,100731.59
2022-11-09T20:02:28.405Z,100732.47
2022-11-09T20:05:55.053Z,100733.31
2022-11-09T20:09:17.881Z,100737.72
2022-11-09T20:12:52.085Z,100728.88
2022-11-09T20:16:14.177Z,100729.78
2022-11-09T20:19:37.332Z,100735.97
2022-11-09T20:23:01.782Z,100745.72
2022-11-09T20:26:24.546Z,100741.28
2022-11-09T20:29:46.230Z,100741.28
2022-11-09T20:33:10.563Z,100742.16
2022-11-09T20:36:34.202Z,100737.69
2022-11-09T20:39:57.689Z,100735.94
2022-11-09T20:43:19.531Z,100749.16
2022-11-09T20:46:42.162Z,100757.09
2022-11-09T20:50:04.226Z,100743.78
2022-11-09T20:53:27.013Z,100739.28
2022-11-09T20:56:51.371Z,100744.59
2022-11-09T21:00:14.483Z,100738.41
2022-11-09T21:03:36.596Z,100737.50
2022-11-09T21:06:58.807Z,100753.44
2022-11-09T21:10:20.501Z,100756.94
2022-11-09T21:13:44.732Z,100745.44
2022-11-09T21:17:06.437Z,100755.97
2022-11-09T21:20:28.051Z,100748.88
2022-11-09T21:24:07.854Z,100740.91
2022-11-09T21:27:48.770Z,100726.72
2022-11-09T21:31:10.620Z,100743.56
2022-11-09T21:34:36.553Z,100736.47
2022-11-09T21:37:58.394Z,100733.81
2022-11-09T21:41:38.203Z,100743.47
2022-11-09T21:45:00.716Z,100730.03
2022-11-09T21:48:22.955Z,100728.31
2022-11-09T21:51:44.152Z,100741.50
2022-11-09T21:55:06.213Z,100745.88
2022-11-09T21:58:27.411Z,100745.00
2022-11-09T22:01:49.278Z,100739.63
2022-11-09T22:05:10.856Z,100750.22
2022-11-09T22:08:32.697Z,100746.69
2022-11-09T22:12:12.594Z,100733.38
2022-11-09T22:15:52.774Z,100737.78
2022-11-09T22:19:32.441Z,100733.31
2022-11-09T22:22:53.825Z,100739.50
2022-11-09T22:26:15.979Z,100751.84
2022-11-09T22:29:37.436Z,100749.16
2022-11-09T22:32:59.170Z,100748.28
2022-11-09T22:36:23.474Z,100742.94
2022-11-09T22:39:47.349Z,100750.00
2022-11-09T22:43:09.064Z,100748.19
2022-11-09T22:46:30.294Z,100741.06
2022-11-09T22:49:51.807Z,100738.47
2022-11-09T22:53:13.006Z,100737.53
2022-11-09T22:56:34.763Z,100743.69
2022-11-09T22:59:55.970Z,100741.97
2022-11-09T23:03:18.055Z,100743.69
2022-11-09T23:06:39.227Z,100739.22
2022-11-09T23:10:00.656Z,100741.91
2022-11-09T23:13:22.281Z,100741.03
2022-11-09T23:16:44.301Z,100733.94
2022-11-09T23:20:06.132Z,100745.38
2022-11-09T23:23:27.801Z,100752.47
2022-11-09T23:26:49.339Z,100748.94
2022-11-09T23:30:11.775Z,100748.00
2022-11-09T23:33:33.231Z,100749.75
2022-11-09T23:36:54.709Z,100748.88
2022-11-09T23:40:16.015Z,100757.72
2022-11-09T23:43:37.929Z,100757.56
2022-11-09T23:46:59.170Z,100759.38
2022-11-09T23:50:21.060Z,100768.19
2022-11-09T23:53:42.258Z,100760.31
2022-11-09T23:57:04.536Z,100770.84
